sensor_id;sensor_type;location;lat;lon;timestamp;temperature;humidity
52435;DHT22;38354;52.892;6.148;2024-02-26T04:01:38;3.70;99.90
52435;DHT22;38354;52.892;6.148;2024-02-26T04:16:11;3.60;99.90
52435;DHT22;38354;52.892;6.148;2024-02-26T04:19:35;3.60;99.90
52435;DHT22;38354;52.892;6.148;2024-02-26T04:46:37;3.60;99.90
52435;DHT22;38354;52.892;6.148;2024-02-26T05:00:37;3.60;99.90
52435;DHT22;38354;52.892;6.148;2024-02-26T05:03:03;3.60;99.90
52435;DHT22;38354;52.892;6.148;2024-02-26T05:05:34;3.60;99.90
52435;DHT22;38354;52.892;6.148;2024-02-26T05:08:00;3.60;99.90
52435;DHT22;38354;52.892;6.148;2024-02-26T05:10:28;3.60;99.90
52435;DHT22;38354;52.892;6.148;2024-02-26T05:13:07;3.60;99.90
52435;DHT22;38354;52.892;6.148;2024-02-26T05:15:41;3.60;99.90
52435;DHT22;38354;52.892;6.148;2024-02-26T05:18:28;3.60;99.90
52435;DHT22;38354;52.892;6.148;2024-02-26T05:20:56;3.60;99.90
52435;DHT22;38354;52.892;6.148;2024-02-26T05:23:22;3.60;99.90
52435;DHT22;38354;52.892;6.148;2024-02-26T05:25:49;3.70;99.90
52435;DHT22;38354;52.892;6.148;2024-02-26T05:28:14;3.70;99.90
52435;DHT22;38354;52.892;6.148;2024-02-26T05:30:45;3.70;99.90
52435;DHT22;38354;52.892;6.148;2024-02-26T05:33:14;3.70;99.90
52435;DHT22;38354;52.892;6.148;2024-02-26T05:35:40;3.70;99.90
52435;DHT22;38354;52.892;6.148;2024-02-26T05:38:06;3.60;99.90
52435;DHT22;38354;52.892;6.148;2024-02-26T05:40:32;3.60;99.90
52435;DHT22;38354;52.892;6.148;2024-02-26T05:42:57;3.70;99.90
52435;DHT22;38354;52.892;6.148;2024-02-26T05:45:23;3.70;99.90
52435;DHT22;38354;52.892;6.148;2024-02-26T05:47:48;3.70;99.90
52435;DHT22;38354;52.892;6.148;2024-02-26T05:50:15;3.70;99.90
52435;DHT22;38354;52.892;6.148;2024-02-26T05:52:41;3.70;99.90
52435;DHT22;38354;52.892;6.148;2024-02-26T05:55:07;3.70;99.90
52435;DHT22;38354;52.892;6.148;2024-02-26T05:57:34;3.70;99.90
52435;DHT22;38354;52.892;6.148;2024-02-26T06:00:00;3.70;99.90
52435;DHT22;38354;52.892;6.148;2024-02-26T06:02:31;3.80;99.90
52435;DHT22;38354;52.892;6.148;2024-02-26T06:04:57;3.70;99.90
52435;DHT22;38354;52.892;6.148;2024-02-26T06:07:23;3.70;99.90
52435;DHT22;38354;52.892;6.148;2024-02-26T06:09:49;3.80;99.90
52435;DHT22;38354;52.892;6.148;2024-02-26T06:12:15;3.80;99.90
52435;DHT22;38354;52.892;6.148;2024-02-26T06:14:42;3.80;99.90
52435;DHT22;38354;52.892;6.148;2024-02-26T06:17:08;3.80;99.90
52435;DHT22;38354;52.892;6.148;2024-02-26T06:19:34;3.80;99.90
52435;DHT22;38354;52.892;6.148;2024-02-26T06:22:00;3.80;99.90
52435;DHT22;38354;52.892;6.148;2024-02-26T06:24:26;3.80;99.90
52435;DHT22;38354;52.892;6.148;2024-02-26T06:26:51;3.80;99.90
52435;DHT22;38354;52.892;6.148;2024-02-26T06:29:17;3.80;99.90
52435;DHT22;38354;52.892;6.148;2024-02-26T06:31:43;3.90;99.90
52435;DHT22;38354;52.892;6.148;2024-02-26T06:34:08;3.90;99.90
52435;DHT22;38354;52.892;6.148;2024-02-26T06:36:34;3.80;99.90
52435;DHT22;38354;52.892;6.148;2024-02-26T06:39:01;3.80;99.90
52435;DHT22;38354;52.892;6.148;2024-02-26T06:41:26;3.90;99.90
52435;DHT22;38354;52.892;6.148;2024-02-26T06:43:56;3.90;99.90
52435;DHT22;38354;52.892;6.148;2024-02-26T06:46:23;3.90;99.90
52435;DHT22;38354;52.892;6.148;2024-02-26T06:48:49;3.90;99.90
52435;DHT22;38354;52.892;6.148;2024-02-26T06:51:15;3.90;99.90
52435;DHT22;38354;52.892;6.148;2024-02-26T06:53:41;3.90;99.90
52435;DHT22;38354;52.892;6.148;2024-02-26T06:56:08;3.90;99.90
52435;DHT22;38354;52.892;6.148;2024-02-26T06:58:34;3.90;99.90
52435;DHT22;38354;52.892;6.148;2024-02-26T07:01:00;4.00;99.90
52435;DHT22;38354;52.892;6.148;2024-02-26T07:03:25;4.00;99.90
52435;DHT22;38354;52.892;6.148;2024-02-26T07:05:51;3.90;99.90
52435;DHT22;38354;52.892;6.148;2024-02-26T07:08:17;4.00;99.90
52435;DHT22;38354;52.892;6.148;2024-02-26T07:10:43;4.00;99.90
52435;DHT22;38354;52.892;6.148;2024-02-26T07:13:09;4.00;99.90
52435;DHT22;38354;52.892;6.148;2024-02-26T07:15:35;4.00;99.90
52435;DHT22;38354;52.892;6.148;2024-02-26T07:18:00;4.00;99.90
52435;DHT22;38354;52.892;6.148;2024-02-26T07:20:29;4.00;99.90
52435;DHT22;38354;52.892;6.148;2024-02-26T07:22:56;4.10;99.90
52435;DHT22;38354;52.892;6.148;2024-02-26T07:25:22;4.10;99.90
52435;DHT22;38354;52.892;6.148;2024-02-26T07:28:19;4.10;99.90
52435;DHT22;38354;52.892;6.148;2024-02-26T07:30:47;4.20;99.90
52435;DHT22;38354;52.892;6.148;2024-02-26T07:33:12;4.20;99.90
52435;DHT22;38354;52.892;6.148;2024-02-26T07:35:38;4.20;99.90
52435;DHT22;38354;52.892;6.148;2024-02-26T07:38:04;4.20;99.90
52435;DHT22;38354;52.892;6.148;2024-02-26T07:40:30;4.20;99.90
52435;DHT22;38354;52.892;6.148;2024-02-26T07:42:56;4.20;99.90
52435;DHT22;38354;52.892;6.148;2024-02-26T07:45:22;4.30;99.90
52435;DHT22;38354;52.892;6.148;2024-02-26T07:47:48;4.30;99.90
52435;DHT22;38354;52.892;6.148;2024-02-26T07:50:14;4.30;99.90
52435;DHT22;38354;52.892;6.148;2024-02-26T07:52:40;4.30;99.90
52435;DHT22;38354;52.892;6.148;2024-02-26T07:55:06;4.40;99.90
52435;DHT22;38354;52.892;6.148;2024-02-26T07:57:35;4.40;99.90
52435;DHT22;38354;52.892;6.148;2024-02-26T08:00:05;4.40;99.90
52435;DHT22;38354;52.892;6.148;2024-02-26T08:02:34;4.40;99.90
52435;DHT22;38354;52.892;6.148;2024-02-26T08:05:00;4.40;99.90
52435;DHT22;38354;52.892;6.148;2024-02-26T08:07:26;4.40;99.90
52435;DHT22;38354;52.892;6.148;2024-02-26T08:09:52;4.40;99.90
52435;DHT22;38354;52.892;6.148;2024-02-26T08:12:17;4.50;99.90
52435;DHT22;38354;52.892;6.148;2024-02-26T08:14:43;4.50;99.90
52435;DHT22;38354;52.892;6.148;2024-02-26T08:17:09;4.50;99.90
52435;DHT22;38354;52.892;6.148;2024-02-26T08:19:35;4.60;99.90
52435;DHT22;38354;52.892;6.148;2024-02-26T08:22:01;4.60;99.90
52435;DHT22;38354;52.892;6.148;2024-02-26T08:24:27;4.60;99.90
52435;DHT22;38354;52.892;6.148;2024-02-26T08:26:54;4.60;99.90
52435;DHT22;38354;52.892;6.148;2024-02-26T08:29:19;4.60;99.90
52435;DHT22;38354;52.892;6.148;2024-02-26T08:31:45;4.60;99.90
52435;DHT22;38354;52.892;6.148;2024-02-26T08:34:11;4.70;99.90
52435;DHT22;38354;52.892;6.148;2024-02-26T08:36:36;4.70;99.90
52435;DHT22;38354;52.892;6.148;2024-02-26T08:39:02;4.70;99.90
52435;DHT22;38354;52.892;6.148;2024-02-26T08:41:28;4.70;99.90
52435;DHT22;38354;52.892;6.148;2024-02-26T08:43:54;4.80;99.90
52435;DHT22;38354;52.892;6.148;2024-02-26T08:46:20;4.80;99.90
52435;DHT22;38354;52.892;6.148;2024-02-26T08:48:46;4.90;99.90
52435;DHT22;38354;52.892;6.148;2024-02-26T08:51:12;4.80;99.90
52435;DHT22;38354;52.892;6.148;2024-02-26T08:53:38;4.90;99.90
52435;DHT22;38354;52.892;6.148;2024-02-26T08:56:04;4.90;99.90
52435;DHT22;38354;52.892;6.148;2024-02-26T08:58:30;4.90;99.90
52435;DHT22;38354;52.892;6.148;2024-02-26T09:00:56;5.00;99.90
52435;DHT22;38354;52.892;6.148;2024-02-26T09:03:22;5.10;99.90
52435;DHT22;38354;52.892;6.148;2024-02-26T09:05:48;5.10;99.90
52435;DHT22;38354;52.892;6.148;2024-02-26T09:08:14;5.10;99.90
52435;DHT22;38354;52.892;6.148;2024-02-26T09:10:40;5.10;99.90
52435;DHT22;38354;52.892;6.148;2024-02-26T09:13:06;5.10;99.90
52435;DHT22;38354;52.892;6.148;2024-02-26T09:15:32;5.20;99.90
52435;DHT22;38354;52.892;6.148;2024-02-26T09:18:00;5.20;99.90
52435;DHT22;38354;52.892;6.148;2024-02-26T09:20:26;5.20;99.90
52435;DHT22;38354;52.892;6.148;2024-02-26T09:22:52;5.30;99.90
52435;DHT22;38354;52.892;6.148;2024-02-26T09:25:18;5.30;99.90
52435;DHT22;38354;52.892;6.148;2024-02-26T09:27:44;5.30;99.90
52435;DHT22;38354;52.892;6.148;2024-02-26T09:30:11;5.30;99.90
52435;DHT22;38354;52.892;6.148;2024-02-26T09:32:38;5.40;99.90
52435;DHT22;38354;52.892;6.148;2024-02-26T09:35:04;5.40;99.90
52435;DHT22;38354;52.892;6.148;2024-02-26T09:37:30;5.50;99.90
52435;DHT22;38354;52.892;6.148;2024-02-26T09:39:55;5.40;99.90
52435;DHT22;38354;52.892;6.148;2024-02-26T09:42:25;5.50;99.90
52435;DHT22;38354;52.892;6.148;2024-02-26T09:44:53;5.50;99.90
52435;DHT22;38354;52.892;6.148;2024-02-26T09:47:28;5.50;99.90
52435;DHT22;38354;52.892;6.148;2024-02-26T09:49:56;5.60;99.90
52435;DHT22;38354;52.892;6.148;2024-02-26T09:52:23;5.60;99.90
52435;DHT22;38354;52.892;6.148;2024-02-26T09:54:49;5.60;99.90
52435;DHT22;38354;52.892;6.148;2024-02-26T09:57:16;5.60;99.90
52435;DHT22;38354;52.892;6.148;2024-02-26T09:59:43;5.70;99.90
52435;DHT22;38354;52.892;6.148;2024-02-26T10:02:12;5.70;99.90
52435;DHT22;38354;52.892;6.148;2024-02-26T10:04:42;5.70;99.90
52435;DHT22;38354;52.892;6.148;2024-02-26T10:07:13;5.70;99.90
52435;DHT22;38354;52.892;6.148;2024-02-26T10:09:40;5.80;99.90
52435;DHT22;38354;52.892;6.148;2024-02-26T10:12:08;5.80;99.90
52435;DHT22;38354;52.892;6.148;2024-02-26T10:14:35;5.90;99.90
52435;DHT22;38354;52.892;6.148;2024-02-26T10:17:02;5.90;99.90
52435;DHT22;38354;52.892;6.148;2024-02-26T10:19:29;6.00;99.90
52435;DHT22;38354;52.892;6.148;2024-02-26T10:22:00;6.10;99.90
52435;DHT22;38354;52.892;6.148;2024-02-26T10:24:27;6.10;99.90
52435;DHT22;38354;52.892;6.148;2024-02-26T10:26:54;6.10;99.90
52435;DHT22;38354;52.892;6.148;2024-02-26T10:29:20;6.10;99.90
52435;DHT22;38354;52.892;6.148;2024-02-26T10:31:46;6.20;99.90
52435;DHT22;38354;52.892;6.148;2024-02-26T10:34:14;6.20;99.90
52435;DHT22;38354;52.892;6.148;2024-02-26T10:36:40;6.30;99.90
52435;DHT22;38354;52.892;6.148;2024-02-26T10:39:11;6.40;99.90
52435;DHT22;38354;52.892;6.148;2024-02-26T10:41:47;6.30;99.90
52435;DHT22;38354;52.892;6.148;2024-02-26T10:44:13;6.30;99.90
52435;DHT22;38354;52.892;6.148;2024-02-26T10:46:40;6.40;99.90
52435;DHT22;38354;52.892;6.148;2024-02-26T10:49:15;6.40;99.90
52435;DHT22;38354;52.892;6.148;2024-02-26T10:51:44;6.40;99.90
52435;DHT22;38354;52.892;6.148;2024-02-26T10:54:15;6.40;99.90
52435;DHT22;38354;52.892;6.148;2024-02-26T10:56:42;6.40;99.90
52435;DHT22;38354;52.892;6.148;2024-02-26T10:59:09;6.50;99.90
52435;DHT22;38354;52.892;6.148;2024-02-26T11:01:36;6.60;99.90
52435;DHT22;38354;52.892;6.148;2024-02-26T11:04:06;6.60;99.90
52435;DHT22;38354;52.892;6.148;2024-02-26T11:06:32;6.50;99.90
52435;DHT22;38354;52.892;6.148;2024-02-26T11:09:01;6.60;99.90
52435;DHT22;38354;52.892;6.148;2024-02-26T11:11:31;6.60;99.90
52435;DHT22;38354;52.892;6.148;2024-02-26T11:13:58;6.70;99.90
52435;DHT22;38354;52.892;6.148;2024-02-26T11:16:26;6.70;99.90
52435;DHT22;38354;52.892;6.148;2024-02-26T11:18:53;6.80;99.90
52435;DHT22;38354;52.892;6.148;2024-02-26T11:21:22;6.80;99.90
52435;DHT22;38354;52.892;6.148;2024-02-26T11:23:54;6.80;99.90
52435;DHT22;38354;52.892;6.148;2024-02-26T11:26:20;6.90;99.90
52435;DHT22;38354;52.892;6.148;2024-02-26T11:28:47;6.90;99.90
52435;DHT22;38354;52.892;6.148;2024-02-26T11:31:13;6.90;99.90
52435;DHT22;38354;52.892;6.148;2024-02-26T11:33:40;6.90;99.90
52435;DHT22;38354;52.892;6.148;2024-02-26T11:36:12;7.00;99.90
52435;DHT22;38354;52.892;6.148;2024-02-26T11:38:39;6.90;99.90
52435;DHT22;38354;52.892;6.148;2024-02-26T11:41:06;6.90;99.90
52435;DHT22;38354;52.892;6.148;2024-02-26T11:43:52;6.90;99.90
52435;DHT22;38354;52.892;6.148;2024-02-26T11:46:25;6.80;99.90
52435;DHT22;38354;52.892;6.148;2024-02-26T11:48:54;6.80;99.90
52435;DHT22;38354;52.892;6.148;2024-02-26T11:51:25;6.80;99.90
52435;DHT22;38354;52.892;6.148;2024-02-26T11:53:51;6.90;99.90
52435;DHT22;38354;52.892;6.148;2024-02-26T11:58:43;6.90;99.90
52435;DHT22;38354;52.892;6.148;2024-02-26T12:01:40;6.90;99.90
52435;DHT22;38354;52.892;6.148;2024-02-26T12:04:18;6.90;99.90
52435;DHT22;38354;52.892;6.148;2024-02-26T12:06:53;6.90;99.90
52435;DHT22;38354;52.892;6.148;2024-02-26T12:09:40;6.90;99.90
52435;DHT22;38354;52.892;6.148;2024-02-26T12:12:08;6.90;99.90
52435;DHT22;38354;52.892;6.148;2024-02-26T12:14:39;6.90;99.90
52435;DHT22;38354;52.892;6.148;2024-02-26T12:17:05;6.90;99.90
52435;DHT22;38354;52.892;6.148;2024-02-26T12:19:34;6.90;99.90
52435;DHT22;38354;52.892;6.148;2024-02-26T12:22:00;7.00;99.90
52435;DHT22;38354;52.892;6.148;2024-02-26T12:24:26;7.00;99.90
52435;DHT22;38354;52.892;6.148;2024-02-26T12:26:52;7.00;99.90
52435;DHT22;38354;52.892;6.148;2024-02-26T12:29:17;7.00;99.90
52435;DHT22;38354;52.892;6.148;2024-02-26T12:31:43;7.10;99.90
52435;DHT22;38354;52.892;6.148;2024-02-26T12:34:09;7.10;99.90
52435;DHT22;38354;52.892;6.148;2024-02-26T12:36:35;7.10;99.90
52435;DHT22;38354;52.892;6.148;2024-02-26T12:39:05;7.10;99.90
52435;DHT22;38354;52.892;6.148;2024-02-26T12:41:33;7.10;99.90
52435;DHT22;38354;52.892;6.148;2024-02-26T12:43:59;7.10;99.90
52435;DHT22;38354;52.892;6.148;2024-02-26T12:46:25;7.10;99.90
52435;DHT22;38354;52.892;6.148;2024-02-26T12:48:51;7.20;99.90
52435;DHT22;38354;52.892;6.148;2024-02-26T12:51:17;7.10;99.90
52435;DHT22;38354;52.892;6.148;2024-02-26T12:53:47;7.10;99.90
52435;DHT22;38354;52.892;6.148;2024-02-26T12:56:16;7.10;99.90
52435;DHT22;38354;52.892;6.148;2024-02-26T12:58:42;7.10;99.90
52435;DHT22;38354;52.892;6.148;2024-02-26T13:01:14;7.10;99.90
52435;DHT22;38354;52.892;6.148;2024-02-26T13:03:40;7.20;99.90
52435;DHT22;38354;52.892;6.148;2024-02-26T13:06:07;7.20;99.90
52435;DHT22;38354;52.892;6.148;2024-02-26T13:08:33;7.20;99.90
52435;DHT22;38354;52.892;6.148;2024-02-26T13:11:00;7.20;99.90
52435;DHT22;38354;52.892;6.148;2024-02-26T13:13:26;7.30;99.90
52435;DHT22;38354;52.892;6.148;2024-02-26T13:16:02;7.30;99.90
52435;DHT22;38354;52.892;6.148;2024-02-26T13:18:29;7.20;99.90
52435;DHT22;38354;52.892;6.148;2024-02-26T13:21:07;7.30;99.90
52435;DHT22;38354;52.892;6.148;2024-02-26T13:23:34;7.20;99.90
52435;DHT22;38354;52.892;6.148;2024-02-26T13:26:00;7.30;99.90
52435;DHT22;38354;52.892;6.148;2024-02-26T13:28:26;7.30;99.90
52435;DHT22;38354;52.892;6.148;2024-02-26T13:30:57;7.30;99.90
52435;DHT22;38354;52.892;6.148;2024-02-26T13:33:24;7.20;99.90
52435;DHT22;38354;52.892;6.148;2024-02-26T13:35:50;7.20;99.90
52435;DHT22;38354;52.892;6.148;2024-02-26T13:38:16;7.20;99.90
52435;DHT22;38354;52.892;6.148;2024-02-26T13:40:42;7.20;99.90
52435;DHT22;38354;52.892;6.148;2024-02-26T13:43:08;7.20;99.90
52435;DHT22;38354;52.892;6.148;2024-02-26T13:45:35;7.20;99.90
52435;DHT22;38354;52.892;6.148;2024-02-26T13:48:08;7.20;99.90
52435;DHT22;38354;52.892;6.148;2024-02-26T13:50:41;7.10;99.90
52435;DHT22;38354;52.892;6.148;2024-02-26T13:53:11;7.10;99.90
52435;DHT22;38354;52.892;6.148;2024-02-26T13:55:39;7.10;99.90
52435;DHT22;38354;52.892;6.148;2024-02-26T13:58:05;7.10;99.90
52435;DHT22;38354;52.892;6.148;2024-02-26T14:00:32;7.10;99.90
52435;DHT22;38354;52.892;6.148;2024-02-26T14:02:59;7.00;99.90
52435;DHT22;38354;52.892;6.148;2024-02-26T14:05:25;7.00;99.90
52435;DHT22;38354;52.892;6.148;2024-02-26T14:07:51;7.00;99.90
52435;DHT22;38354;52.892;6.148;2024-02-26T14:10:17;7.00;99.90
52435;DHT22;38354;52.892;6.148;2024-02-26T14:12:43;6.90;99.90
52435;DHT22;38354;52.892;6.148;2024-02-26T14:15:10;6.90;99.90
52435;DHT22;38354;52.892;6.148;2024-02-26T14:17:36;6.90;99.90
52435;DHT22;38354;52.892;6.148;2024-02-26T14:20:02;6.80;99.90
52435;DHT22;38354;52.892;6.148;2024-02-26T14:22:28;6.80;99.90
52435;DHT22;38354;52.892;6.148;2024-02-26T14:24:56;6.70;99.90
52435;DHT22;38354;52.892;6.148;2024-02-26T14:27:22;6.70;99.90
52435;DHT22;38354;52.892;6.148;2024-02-26T14:29:48;6.70;99.90
52435;DHT22;38354;52.892;6.148;2024-02-26T14:32:14;6.70;99.90
52435;DHT22;38354;52.892;6.148;2024-02-26T14:34:40;6.70;99.90
52435;DHT22;38354;52.892;6.148;2024-02-26T14:37:06;6.70;99.90
52435;DHT22;38354;52.892;6.148;2024-02-26T14:39:32;6.70;99.90
52435;DHT22;38354;52.892;6.148;2024-02-26T14:41:58;6.70;99.90
52435;DHT22;38354;52.892;6.148;2024-02-26T14:44:24;6.70;99.90
52435;DHT22;38354;52.892;6.148;2024-02-26T14:46:50;6.70;99.90
52435;DHT22;38354;52.892;6.148;2024-02-26T14:49:16;6.60;99.90
52435;DHT22;38354;52.892;6.148;2024-02-26T14:51:45;6.60;99.90
52435;DHT22;38354;52.892;6.148;2024-02-26T14:54:12;6.60;99.90
52435;DHT22;38354;52.892;6.148;2024-02-26T14:56:38;6.60;99.90
52435;DHT22;38354;52.892;6.148;2024-02-26T14:59:03;6.60;99.90
52435;DHT22;38354;52.892;6.148;2024-02-26T15:01:29;6.60;99.90
52435;DHT22;38354;52.892;6.148;2024-02-26T15:03:54;6.50;99.90
52435;DHT22;38354;52.892;6.148;2024-02-26T15:06:20;6.50;99.90
52435;DHT22;38354;52.892;6.148;2024-02-26T15:08:47;6.50;99.90
52435;DHT22;38354;52.892;6.148;2024-02-26T15:11:13;6.40;99.90
52435;DHT22;38354;52.892;6.148;2024-02-26T15:13:38;6.50;99.90
52435;DHT22;38354;52.892;6.148;2024-02-26T15:16:05;6.40;99.90
52435;DHT22;38354;52.892;6.148;2024-02-26T15:18:31;6.40;99.90
52435;DHT22;38354;52.892;6.148;2024-02-26T15:20:57;6.40;99.90
52435;DHT22;38354;52.892;6.148;2024-02-26T15:23:22;6.40;99.90
52435;DHT22;38354;52.892;6.148;2024-02-26T15:25:48;6.30;99.90
52435;DHT22;38354;52.892;6.148;2024-02-26T15:28:14;6.30;99.90
52435;DHT22;38354;52.892;6.148;2024-02-26T15:30:41;6.30;99.90
52435;DHT22;38354;52.892;6.148;2024-02-26T15:33:06;6.30;99.90
52435;DHT22;38354;52.892;6.148;2024-02-26T15:35:32;6.20;99.90
52435;DHT22;38354;52.892;6.148;2024-02-26T15:37:58;6.20;99.90
52435;DHT22;38354;52.892;6.148;2024-02-26T15:40:24;6.20;99.90
52435;DHT22;38354;52.892;6.148;2024-02-26T15:42:50;6.20;99.90
52435;DHT22;38354;52.892;6.148;2024-02-26T15:45:15;6.20;99.90
52435;DHT22;38354;52.892;6.148;2024-02-26T15:47:42;6.10;99.90
52435;DHT22;38354;52.892;6.148;2024-02-26T15:50:08;6.10;99.90
52435;DHT22;38354;52.892;6.148;2024-02-26T15:52:36;6.10;99.90
52435;DHT22;38354;52.892;6.148;2024-02-26T15:55:01;6.00;99.90
52435;DHT22;38354;52.892;6.148;2024-02-26T15:57:27;6.10;99.90
52435;DHT22;38354;52.892;6.148;2024-02-26T15:59:53;6.00;99.90
52435;DHT22;38354;52.892;6.148;2024-02-26T16:02:19;6.00;99.90
52435;DHT22;38354;52.892;6.148;2024-02-26T16:04:46;6.00;99.90
52435;DHT22;38354;52.892;6.148;2024-02-26T16:07:20;5.90;99.90
52435;DHT22;38354;52.892;6.148;2024-02-26T16:09:52;5.90;99.90
52435;DHT22;38354;52.892;6.148;2024-02-26T16:12:24;5.90;99.90
52435;DHT22;38354;52.892;6.148;2024-02-26T16:14:52;5.90;99.90
52435;DHT22;38354;52.892;6.148;2024-02-26T16:19:49;5.90;99.90
52435;DHT22;38354;52.892;6.148;2024-02-26T16:22:16;5.90;99.90
52435;DHT22;38354;52.892;6.148;2024-02-26T16:24:42;5.80;99.90
52435;DHT22;38354;52.892;6.148;2024-02-26T16:27:07;5.80;99.90
52435;DHT22;38354;52.892;6.148;2024-02-26T16:29:33;5.80;99.90
52435;DHT22;38354;52.892;6.148;2024-02-26T16:31:59;5.80;99.90
52435;DHT22;38354;52.892;6.148;2024-02-26T16:34:24;5.80;99.90
52435;DHT22;38354;52.892;6.148;2024-02-26T16:36:50;5.70;99.90
52435;DHT22;38354;52.892;6.148;2024-02-26T16:39:16;5.70;99.90
52435;DHT22;38354;52.892;6.148;2024-02-26T16:41:42;5.70;99.90
52435;DHT22;38354;52.892;6.148;2024-02-26T16:44:08;5.70;99.90
52435;DHT22;38354;52.892;6.148;2024-02-26T16:46:34;5.70;99.90
52435;DHT22;38354;52.892;6.148;2024-02-26T16:48:59;5.60;99.90
52435;DHT22;38354;52.892;6.148;2024-02-26T16:51:25;5.70;99.90
52435;DHT22;38354;52.892;6.148;2024-02-26T16:53:51;5.60;99.90
52435;DHT22;38354;52.892;6.148;2024-02-26T16:56:17;5.70;99.90
52435;DHT22;38354;52.892;6.148;2024-02-26T16:58:42;5.60;99.90
52435;DHT22;38354;52.892;6.148;2024-02-26T17:01:08;5.60;99.90
52435;DHT22;38354;52.892;6.148;2024-02-26T17:03:34;5.60;99.90
52435;DHT22;38354;52.892;6.148;2024-02-26T17:06:00;5.50;99.90
52435;DHT22;38354;52.892;6.148;2024-02-26T17:08:25;5.50;99.90
52435;DHT22;38354;52.892;6.148;2024-02-26T17:10:51;5.50;99.90
52435;DHT22;38354;52.892;6.148;2024-02-26T17:13:17;5.50;99.90
52435;DHT22;38354;52.892;6.148;2024-02-26T17:15:43;5.40;99.90
52435;DHT22;38354;52.892;6.148;2024-02-26T17:18:09;5.40;99.90
52435;DHT22;38354;52.892;6.148;2024-02-26T17:20:41;5.50;99.90
52435;DHT22;38354;52.892;6.148;2024-02-26T17:23:07;5.40;99.90
52435;DHT22;38354;52.892;6.148;2024-02-26T17:25:32;5.40;99.90
52435;DHT22;38354;52.892;6.148;2024-02-26T17:27:58;5.30;99.90
52435;DHT22;38354;52.892;6.148;2024-02-26T17:30:24;5.30;99.90
52435;DHT22;38354;52.892;6.148;2024-02-26T17:32:51;5.30;99.90
52435;DHT22;38354;52.892;6.148;2024-02-26T17:35:16;5.30;99.90
52435;DHT22;38354;52.892;6.148;2024-02-26T17:37:43;5.30;99.90
52435;DHT22;38354;52.892;6.148;2024-02-26T17:40:11;5.30;99.90
52435;DHT22;38354;52.892;6.148;2024-02-26T17:42:37;5.20;99.90
52435;DHT22;38354;52.892;6.148;2024-02-26T17:45:03;5.20;99.90
52435;DHT22;38354;52.892;6.148;2024-02-26T17:47:30;5.20;99.90
52435;DHT22;38354;52.892;6.148;2024-02-26T17:49:55;5.20;99.90
52435;DHT22;38354;52.892;6.148;2024-02-26T17:52:21;5.20;99.90
52435;DHT22;38354;52.892;6.148;2024-02-26T17:54:47;5.10;99.90
52435;DHT22;38354;52.892;6.148;2024-02-26T17:57:12;5.10;99.90
52435;DHT22;38354;52.892;6.148;2024-02-26T17:59:38;5.10;99.90
52435;DHT22;38354;52.892;6.148;2024-02-26T18:02:04;5.10;99.90
52435;DHT22;38354;52.892;6.148;2024-02-26T18:04:31;5.10;99.90
52435;DHT22;38354;52.892;6.148;2024-02-26T18:06:57;5.10;99.90
52435;DHT22;38354;52.892;6.148;2024-02-26T18:09:23;5.10;99.90
52435;DHT22;38354;52.892;6.148;2024-02-26T18:11:53;5.10;99.90
52435;DHT22;38354;52.892;6.148;2024-02-26T18:14:18;5.10;99.90
52435;DHT22;38354;52.892;6.148;2024-02-26T18:16:44;5.00;99.90
52435;DHT22;38354;52.892;6.148;2024-02-26T18:19:10;5.00;99.90
52435;DHT22;38354;52.892;6.148;2024-02-26T18:21:35;5.00;99.90
52435;DHT22;38354;52.892;6.148;2024-02-26T18:24:01;5.00;99.90
52435;DHT22;38354;52.892;6.148;2024-02-26T18:26:26;5.00;99.90
52435;DHT22;38354;52.892;6.148;2024-02-26T18:28:53;4.90;99.90
52435;DHT22;38354;52.892;6.148;2024-02-26T18:31:19;4.90;99.90
52435;DHT22;38354;52.892;6.148;2024-02-26T18:33:45;4.90;99.90
52435;DHT22;38354;52.892;6.148;2024-02-26T18:36:10;4.90;99.90
52435;DHT22;38354;52.892;6.148;2024-02-26T18:38:36;4.90;99.90
52435;DHT22;38354;52.892;6.148;2024-02-26T18:41:02;4.80;99.90
52435;DHT22;38354;52.892;6.148;2024-02-26T18:43:28;4.80;99.90
52435;DHT22;38354;52.892;6.148;2024-02-26T18:45:55;4.80;99.90
52435;DHT22;38354;52.892;6.148;2024-02-26T18:48:23;4.70;99.90
52435;DHT22;38354;52.892;6.148;2024-02-26T18:50:52;4.80;99.90
52435;DHT22;38354;52.892;6.148;2024-02-26T18:53:18;4.70;99.90
52435;DHT22;38354;52.892;6.148;2024-02-26T18:55:44;4.70;99.90
52435;DHT22;38354;52.892;6.148;2024-02-26T18:58:10;4.60;99.90
52435;DHT22;38354;52.892;6.148;2024-02-26T19:00:36;4.60;99.90
52435;DHT22;38354;52.892;6.148;2024-02-26T19:03:02;4.60;99.90
52435;DHT22;38354;52.892;6.148;2024-02-26T19:05:28;4.60;99.90
52435;DHT22;38354;52.892;6.148;2024-02-26T19:07:56;4.60;99.90
52435;DHT22;38354;52.892;6.148;2024-02-26T19:10:27;4.50;99.90
52435;DHT22;38354;52.892;6.148;2024-02-26T19:12:52;4.60;99.90
52435;DHT22;38354;52.892;6.148;2024-02-26T19:15:18;4.50;99.90
52435;DHT22;38354;52.892;6.148;2024-02-26T19:17:46;4.50;99.90
52435;DHT22;38354;52.892;6.148;2024-02-26T19:20:12;4.40;99.90
52435;DHT22;38354;52.892;6.148;2024-02-26T19:22:38;4.40;99.90
52435;DHT22;38354;52.892;6.148;2024-02-26T19:25:11;4.40;99.90
52435;DHT22;38354;52.892;6.148;2024-02-26T19:27:37;4.40;99.90
52435;DHT22;38354;52.892;6.148;2024-02-26T19:30:03;4.40;99.90
52435;DHT22;38354;52.892;6.148;2024-02-26T19:32:30;4.40;99.90
52435;DHT22;38354;52.892;6.148;2024-02-26T19:34:56;4.30;99.90
52435;DHT22;38354;52.892;6.148;2024-02-26T19:37:26;4.30;99.90
52435;DHT22;38354;52.892;6.148;2024-02-26T19:39:52;4.30;99.90
52435;DHT22;38354;52.892;6.148;2024-02-26T19:42:24;4.30;99.90
52435;DHT22;38354;52.892;6.148;2024-02-26T19:44:50;4.30;99.90
52435;DHT22;38354;52.892;6.148;2024-02-26T19:47:16;4.30;99.90
52435;DHT22;38354;52.892;6.148;2024-02-26T19:49:41;4.30;99.90
52435;DHT22;38354;52.892;6.148;2024-02-26T19:52:07;4.30;99.90
52435;DHT22;38354;52.892;6.148;2024-02-26T19:54:37;4.30;99.90
52435;DHT22;38354;52.892;6.148;2024-02-26T19:57:02;4.20;99.90
52435;DHT22;38354;52.892;6.148;2024-02-26T19:59:31;4.20;99.90
52435;DHT22;38354;52.892;6.148;2024-02-26T20:01:57;4.20;99.90
52435;DHT22;38354;52.892;6.148;2024-02-26T20:04:23;4.20;99.90
52435;DHT22;38354;52.892;6.148;2024-02-26T20:06:48;4.20;99.90
52435;DHT22;38354;52.892;6.148;2024-02-26T20:09:14;4.20;99.90
52435;DHT22;38354;52.892;6.148;2024-02-26T20:11:40;4.10;99.90
52435;DHT22;38354;52.892;6.148;2024-02-26T20:14:06;4.10;99.90
52435;DHT22;38354;52.892;6.148;2024-02-26T20:16:34;4.10;99.90
52435;DHT22;38354;52.892;6.148;2024-02-26T20:19:00;4.10;99.90
52435;DHT22;38354;52.892;6.148;2024-02-26T20:21:26;4.10;99.90
52435;DHT22;38354;52.892;6.148;2024-02-26T20:23:51;4.10;99.90
52435;DHT22;38354;52.892;6.148;2024-02-26T20:26:17;4.00;99.90
52435;DHT22;38354;52.892;6.148;2024-02-26T20:28:43;4.10;99.90
52435;DHT22;38354;52.892;6.148;2024-02-26T20:31:09;4.10;99.90
52435;DHT22;38354;52.892;6.148;2024-02-26T20:33:35;4.00;99.90
52435;DHT22;38354;52.892;6.148;2024-02-26T20:36:02;4.00;99.90
52435;DHT22;38354;52.892;6.148;2024-02-26T20:38:27;3.90;99.90